sensor_id;sensor_type;location;lat;lon;timestamp;P1;durP1;ratioP1;P2;durP2;ratioP2
15629;SDS011;7914;50.842;0.166;2023-05-13T00:00:10;18.08;;;9.27;;
15629;SDS011;7914;50.842;0.166;2023-05-13T00:02:36;23.45;;;9.85;;
15629;SDS011;7914;50.842;0.166;2023-05-13T00:05:02;22.52;;;9.65;;
15629;SDS011;7914;50.842;0.166;2023-05-13T00:07:27;19.52;;;9.75;;
15629;SDS011;7914;50.842;0.166;2023-05-13T00:09:53;23.73;;;10.13;;
15629;SDS011;7914;50.842;0.166;2023-05-13T00:12:19;24.40;;;9.68;;
15629;SDS011;7914;50.842;0.166;2023-05-13T00:14:44;21.17;;;10.85;;
15629;SDS011;7914;50.842;0.166;2023-05-13T00:17:10;21.95;;;10.25;;
15629;SDS011;7914;50.842;0.166;2023-05-13T00:19:36;24.95;;;9.93;;
15629;SDS011;7914;50.842;0.166;2023-05-13T00:22:02;23.73;;;10.02;;
15629;SDS011;7914;50.842;0.166;2023-05-13T00:24:27;21.40;;;9.45;;
15629;SDS011;7914;50.842;0.166;2023-05-13T00:26:53;25.38;;;10.32;;
15629;SDS011;7914;50.842;0.166;2023-05-13T00:29:19;21.98;;;9.77;;
15629;SDS011;7914;50.842;0.166;2023-05-13T00:31:45;21.33;;;10.02;;
15629;SDS011;7914;50.842;0.166;2023-05-13T00:34:11;20.58;;;10.40;;
15629;SDS011;7914;50.842;0.166;2023-05-13T00:36:36;22.80;;;10.00;;
15629;SDS011;7914;50.842;0.166;2023-05-13T00:39:02;24.60;;;10.45;;
15629;SDS011;7914;50.842;0.166;2023-05-13T00:41:28;23.05;;;9.18;;
15629;SDS011;7914;50.842;0.166;2023-05-13T00:43:54;18.75;;;9.15;;
15629;SDS011;7914;50.842;0.166;2023-05-13T00:46:21;25.77;;;10.38;;
15629;SDS011;7914;50.842;0.166;2023-05-13T00:48:48;25.42;;;9.48;;
15629;SDS011;7914;50.842;0.166;2023-05-13T00:51:14;16.55;;;8.43;;
15629;SDS011;7914;50.842;0.166;2023-05-13T00:53:41;21.65;;;8.65;;
15629;SDS011;7914;50.842;0.166;2023-05-13T00:56:07;21.20;;;9.75;;
15629;SDS011;7914;50.842;0.166;2023-05-13T00:58:33;23.52;;;9.43;;
15629;SDS011;7914;50.842;0.166;2023-05-13T01:03:55;19.58;;;9.80;;
15629;SDS011;7914;50.842;0.166;2023-05-13T01:06:34;20.90;;;8.93;;
15629;SDS011;7914;50.842;0.166;2023-05-13T01:12:21;26.13;;;9.75;;
15629;SDS011;7914;50.842;0.166;2023-05-13T01:15:12;18.67;;;8.80;;
15629;SDS011;7914;50.842;0.166;2023-05-13T01:17:59;16.75;;;8.30;;
15629;SDS011;7914;50.842;0.166;2023-05-13T01:20:31;20.17;;;8.35;;
15629;SDS011;7914;50.842;0.166;2023-05-13T01:22:58;19.80;;;9.48;;
15629;SDS011;7914;50.842;0.166;2023-05-13T01:25:24;18.15;;;7.85;;
15629;SDS011;7914;50.842;0.166;2023-05-13T01:27:50;18.42;;;8.20;;
15629;SDS011;7914;50.842;0.166;2023-05-13T01:30:17;18.15;;;8.95;;
15629;SDS011;7914;50.842;0.166;2023-05-13T01:32:44;21.65;;;8.75;;
15629;SDS011;7914;50.842;0.166;2023-05-13T01:35:10;18.77;;;9.02;;
15629;SDS011;7914;50.842;0.166;2023-05-13T01:37:37;16.13;;;8.27;;
15629;SDS011;7914;50.842;0.166;2023-05-13T01:40:04;20.50;;;9.48;;
15629;SDS011;7914;50.842;0.166;2023-05-13T01:42:31;22.73;;;8.15;;
15629;SDS011;7914;50.842;0.166;2023-05-13T01:44:58;14.60;;;7.30;;
15629;SDS011;7914;50.842;0.166;2023-05-13T01:47:24;14.80;;;7.03;;
15629;SDS011;7914;50.842;0.166;2023-05-13T01:49:51;23.67;;;8.88;;
15629;SDS011;7914;50.842;0.166;2023-05-13T01:52:17;20.02;;;8.10;;
15629;SDS011;7914;50.842;0.166;2023-05-13T01:54:42;14.63;;;7.35;;
15629;SDS011;7914;50.842;0.166;2023-05-13T01:57:08;17.25;;;8.07;;
15629;SDS011;7914;50.842;0.166;2023-05-13T01:59:34;19.45;;;7.45;;
15629;SDS011;7914;50.842;0.166;2023-05-13T02:02:00;19.38;;;8.57;;
15629;SDS011;7914;50.842;0.166;2023-05-13T02:04:25;19.55;;;8.77;;
15629;SDS011;7914;50.842;0.166;2023-05-13T02:06:51;17.92;;;8.13;;
15629;SDS011;7914;50.842;0.166;2023-05-13T02:09:17;21.30;;;8.43;;
15629;SDS011;7914;50.842;0.166;2023-05-13T02:11:44;15.13;;;6.65;;
15629;SDS011;7914;50.842;0.166;2023-05-13T02:14:10;17.60;;;8.60;;
15629;SDS011;7914;50.842;0.166;2023-05-13T02:16:36;18.02;;;7.85;;
15629;SDS011;7914;50.842;0.166;2023-05-13T02:19:02;15.50;;;7.88;;
15629;SDS011;7914;50.842;0.166;2023-05-13T02:21:27;17.83;;;8.52;;
15629;SDS011;7914;50.842;0.166;2023-05-13T02:23:53;19.63;;;8.25;;
15629;SDS011;7914;50.842;0.166;2023-05-13T02:26:19;17.45;;;8.20;;
15629;SDS011;7914;50.842;0.166;2023-05-13T02:28:46;21.40;;;8.20;;
15629;SDS011;7914;50.842;0.166;2023-05-13T02:31:12;17.45;;;8.20;;
15629;SDS011;7914;50.842;0.166;2023-05-13T02:33:38;21.38;;;8.25;;
15629;SDS011;7914;50.842;0.166;2023-05-13T02:36:03;17.20;;;8.02;;
15629;SDS011;7914;50.842;0.166;2023-05-13T02:38:29;20.80;;;8.90;;
15629;SDS011;7914;50.842;0.166;2023-05-13T02:40:55;19.33;;;9.05;;
15629;SDS011;7914;50.842;0.166;2023-05-13T02:43:21;19.40;;;8.23;;
15629;SDS011;7914;50.842;0.166;2023-05-13T02:45:48;22.23;;;9.45;;
15629;SDS011;7914;50.842;0.166;2023-05-13T02:48:14;21.45;;;8.30;;
15629;SDS011;7914;50.842;0.166;2023-05-13T02:50:40;23.35;;;8.50;;
15629;SDS011;7914;50.842;0.166;2023-05-13T02:53:06;17.83;;;8.35;;
15629;SDS011;7914;50.842;0.166;2023-05-13T02:55:31;20.00;;;8.43;;
15629;SDS011;7914;50.842;0.166;2023-05-13T02:57:57;15.80;;;8.02;;
15629;SDS011;7914;50.842;0.166;2023-05-13T03:00:23;15.90;;;7.93;;
15629;SDS011;7914;50.842;0.166;2023-05-13T03:02:48;19.98;;;8.88;;
15629;SDS011;7914;50.842;0.166;2023-05-13T03:05:14;16.08;;;8.45;;
15629;SDS011;7914;50.842;0.166;2023-05-13T03:07:40;16.83;;;7.95;;
15629;SDS011;7914;50.842;0.166;2023-05-13T03:10:06;18.75;;;8.43;;
15629;SDS011;7914;50.842;0.166;2023-05-13T03:12:32;17.00;;;7.13;;
15629;SDS011;7914;50.842;0.166;2023-05-13T03:14:58;14.70;;;7.55;;
15629;SDS011;7914;50.842;0.166;2023-05-13T03:17:24;16.77;;;7.60;;
15629;SDS011;7914;50.842;0.166;2023-05-13T03:19:49;23.17;;;10.20;;
15629;SDS011;7914;50.842;0.166;2023-05-13T03:22:15;16.77;;;8.52;;
15629;SDS011;7914;50.842;0.166;2023-05-13T03:24:41;18.98;;;8.20;;
15629;SDS011;7914;50.842;0.166;2023-05-13T03:27:08;21.13;;;9.25;;
15629;SDS011;7914;50.842;0.166;2023-05-13T03:29:34;19.48;;;7.30;;
15629;SDS011;7914;50.842;0.166;2023-05-13T03:32:00;16.23;;;8.30;;
15629;SDS011;7914;50.842;0.166;2023-05-13T03:34:26;16.88;;;7.15;;
15629;SDS011;7914;50.842;0.166;2023-05-13T03:36:51;15.73;;;6.82;;
15629;SDS011;7914;50.842;0.166;2023-05-13T03:39:17;17.83;;;8.30;;
15629;SDS011;7914;50.842;0.166;2023-05-13T03:41:43;14.63;;;7.43;;
15629;SDS011;7914;50.842;0.166;2023-05-13T03:44:09;18.13;;;8.07;;
15629;SDS011;7914;50.842;0.166;2023-05-13T03:46:35;14.65;;;7.80;;
15629;SDS011;7914;50.842;0.166;2023-05-13T03:49:01;20.92;;;9.02;;
15629;SDS011;7914;50.842;0.166;2023-05-13T03:51:27;18.20;;;7.38;;
15629;SDS011;7914;50.842;0.166;2023-05-13T03:53:52;20.10;;;7.50;;
15629;SDS011;7914;50.842;0.166;2023-05-13T03:56:18;12.82;;;7.50;;
15629;SDS011;7914;50.842;0.166;2023-05-13T03:58:45;17.67;;;8.05;;
15629;SDS011;7914;50.842;0.166;2023-05-13T04:01:11;15.95;;;7.40;;
15629;SDS011;7914;50.842;0.166;2023-05-13T04:03:36;17.60;;;7.05;;
15629;SDS011;7914;50.842;0.166;2023-05-13T04:06:02;15.45;;;7.25;;
15629;SDS011;7914;50.842;0.166;2023-05-13T04:08:28;16.02;;;7.53;;
15629;SDS011;7914;50.842;0.166;2023-05-13T04:10:53;16.75;;;7.50;;
15629;SDS011;7914;50.842;0.166;2023-05-13T04:13:21;13.98;;;6.88;;
15629;SDS011;7914;50.842;0.166;2023-05-13T04:15:46;15.70;;;7.07;;
15629;SDS011;7914;50.842;0.166;2023-05-13T04:18:12;15.45;;;7.05;;
15629;SDS011;7914;50.842;0.166;2023-05-13T04:20:38;17.73;;;8.60;;
15629;SDS011;7914;50.842;0.166;2023-05-13T04:23:04;18.92;;;7.30;;
15629;SDS011;7914;50.842;0.166;2023-05-13T04:25:30;13.63;;;6.78;;
15629;SDS011;7914;50.842;0.166;2023-05-13T04:27:56;17.17;;;7.35;;
15629;SDS011;7914;50.842;0.166;2023-05-13T04:30:22;13.98;;;7.97;;
15629;SDS011;7914;50.842;0.166;2023-05-13T04:32:48;18.15;;;7.05;;
15629;SDS011;7914;50.842;0.166;2023-05-13T04:35:14;15.80;;;6.75;;
15629;SDS011;7914;50.842;0.166;2023-05-13T04:37:39;17.40;;;7.15;;
15629;SDS011;7914;50.842;0.166;2023-05-13T04:40:05;17.02;;;7.82;;
15629;SDS011;7914;50.842;0.166;2023-05-13T04:42:34;16.42;;;7.25;;
15629;SDS011;7914;50.842;0.166;2023-05-13T04:44:59;16.10;;;7.07;;
15629;SDS011;7914;50.842;0.166;2023-05-13T04:47:25;18.70;;;7.53;;
15629;SDS011;7914;50.842;0.166;2023-05-13T04:49:51;17.40;;;7.15;;
15629;SDS011;7914;50.842;0.166;2023-05-13T04:52:16;15.13;;;7.43;;
15629;SDS011;7914;50.842;0.166;2023-05-13T04:54:43;14.93;;;6.95;;
15629;SDS011;7914;50.842;0.166;2023-05-13T04:57:09;16.00;;;7.60;;
15629;SDS011;7914;50.842;0.166;2023-05-13T04:59:35;18.27;;;7.07;;
15629;SDS011;7914;50.842;0.166;2023-05-13T05:02:00;15.32;;;6.55;;
15629;SDS011;7914;50.842;0.166;2023-05-13T05:04:26;16.60;;;6.70;;
15629;SDS011;7914;50.842;0.166;2023-05-13T05:06:52;16.88;;;8.07;;
15629;SDS011;7914;50.842;0.166;2023-05-13T05:09:18;17.90;;;7.40;;
15629;SDS011;7914;50.842;0.166;2023-05-13T05:11:43;15.38;;;6.90;;
15629;SDS011;7914;50.842;0.166;2023-05-13T05:14:09;15.25;;;7.57;;
15629;SDS011;7914;50.842;0.166;2023-05-13T05:16:35;19.20;;;8.23;;
15629;SDS011;7914;50.842;0.166;2023-05-13T05:19:01;15.00;;;7.45;;
15629;SDS011;7914;50.842;0.166;2023-05-13T05:21:26;17.70;;;7.78;;
15629;SDS011;7914;50.842;0.166;2023-05-13T05:23:52;19.60;;;7.68;;
15629;SDS011;7914;50.842;0.166;2023-05-13T05:26:18;16.17;;;7.85;;
15629;SDS011;7914;50.842;0.166;2023-05-13T05:28:43;18.48;;;7.30;;
15629;SDS011;7914;50.842;0.166;2023-05-13T05:31:09;16.48;;;7.53;;
15629;SDS011;7914;50.842;0.166;2023-05-13T05:33:35;18.55;;;7.80;;
15629;SDS011;7914;50.842;0.166;2023-05-13T05:36:02;16.20;;;7.80;;
15629;SDS011;7914;50.842;0.166;2023-05-13T05:38:28;18.20;;;7.55;;
15629;SDS011;7914;50.842;0.166;2023-05-13T05:40:53;17.25;;;7.78;;
15629;SDS011;7914;50.842;0.166;2023-05-13T05:43:19;17.63;;;8.23;;
15629;SDS011;7914;50.842;0.166;2023-05-13T05:45:45;15.15;;;6.82;;
15629;SDS011;7914;50.842;0.166;2023-05-13T05:48:11;17.15;;;8.30;;
15629;SDS011;7914;50.842;0.166;2023-05-13T05:50:37;21.17;;;8.52;;
15629;SDS011;7914;50.842;0.166;2023-05-13T05:53:03;15.27;;;7.68;;
15629;SDS011;7914;50.842;0.166;2023-05-13T05:55:28;13.57;;;6.65;;
15629;SDS011;7914;50.842;0.166;2023-05-13T05:57:56;14.68;;;6.85;;
15629;SDS011;7914;50.842;0.166;2023-05-13T06:00:22;17.52;;;7.00;;
15629;SDS011;7914;50.842;0.166;2023-05-13T06:02:48;18.33;;;7.38;;
15629;SDS011;7914;50.842;0.166;2023-05-13T06:05:14;16.77;;;7.55;;
15629;SDS011;7914;50.842;0.166;2023-05-13T06:07:40;18.65;;;6.78;;
15629;SDS011;7914;50.842;0.166;2023-05-13T06:10:06;11.98;;;6.55;;
15629;SDS011;7914;50.842;0.166;2023-05-13T06:12:32;14.07;;;7.10;;
15629;SDS011;7914;50.842;0.166;2023-05-13T06:14:58;14.50;;;7.57;;
15629;SDS011;7914;50.842;0.166;2023-05-13T06:17:24;20.52;;;7.30;;
15629;SDS011;7914;50.842;0.166;2023-05-13T06:19:50;16.13;;;6.72;;
15629;SDS011;7914;50.842;0.166;2023-05-13T06:22:16;14.60;;;7.20;;
15629;SDS011;7914;50.842;0.166;2023-05-13T06:24:41;14.50;;;6.53;;
15629;SDS011;7914;50.842;0.166;2023-05-13T06:27:11;14.70;;;6.95;;
15629;SDS011;7914;50.842;0.166;2023-05-13T06:32:03;16.98;;;7.05;;
15629;SDS011;7914;50.842;0.166;2023-05-13T06:34:29;12.68;;;6.05;;
15629;SDS011;7914;50.842;0.166;2023-05-13T06:36:55;12.25;;;6.30;;
15629;SDS011;7914;50.842;0.166;2023-05-13T06:39:20;12.13;;;6.25;;
15629;SDS011;7914;50.842;0.166;2023-05-13T06:41:46;15.10;;;6.15;;
15629;SDS011;7914;50.842;0.166;2023-05-13T06:44:12;17.58;;;7.40;;
15629;SDS011;7914;50.842;0.166;2023-05-13T06:46:37;17.10;;;6.50;;
15629;SDS011;7914;50.842;0.166;2023-05-13T06:49:03;13.27;;;6.88;;
15629;SDS011;7914;50.842;0.166;2023-05-13T06:51:29;15.20;;;6.50;;
15629;SDS011;7914;50.842;0.166;2023-05-13T06:53:56;12.88;;;6.57;;
15629;SDS011;7914;50.842;0.166;2023-05-13T06:56:22;14.70;;;6.22;;
15629;SDS011;7914;50.842;0.166;2023-05-13T06:58:48;12.82;;;6.57;;
15629;SDS011;7914;50.842;0.166;2023-05-13T07:01:15;15.30;;;6.28;;
15629;SDS011;7914;50.842;0.166;2023-05-13T07:03:41;13.40;;;6.40;;
15629;SDS011;7914;50.842;0.166;2023-05-13T07:06:07;14.80;;;6.72;;
15629;SDS011;7914;50.842;0.166;2023-05-13T07:08:33;13.93;;;6.40;;
15629;SDS011;7914;50.842;0.166;2023-05-13T07:10:59;11.02;;;6.18;;
15629;SDS011;7914;50.842;0.166;2023-05-13T07:13:24;11.85;;;5.38;;
15629;SDS011;7914;50.842;0.166;2023-05-13T07:15:51;16.13;;;5.70;;
15629;SDS011;7914;50.842;0.166;2023-05-13T07:18:16;13.35;;;6.07;;
15629;SDS011;7914;50.842;0.166;2023-05-13T07:20:42;13.68;;;5.97;;
15629;SDS011;7914;50.842;0.166;2023-05-13T07:23:08;11.32;;;6.10;;
15629;SDS011;7914;50.842;0.166;2023-05-13T07:25:34;17.08;;;7.35;;
15629;SDS011;7914;50.842;0.166;2023-05-13T07:27:59;12.57;;;6.25;;
15629;SDS011;7914;50.842;0.166;2023-05-13T07:30:25;18.13;;;6.32;;
15629;SDS011;7914;50.842;0.166;2023-05-13T07:32:51;12.55;;;5.50;;
15629;SDS011;7914;50.842;0.166;2023-05-13T07:35:16;15.27;;;6.75;;
15629;SDS011;7914;50.842;0.166;2023-05-13T07:37:43;13.82;;;5.88;;
15629;SDS011;7914;50.842;0.166;2023-05-13T07:40:09;10.75;;;5.65;;
15629;SDS011;7914;50.842;0.166;2023-05-13T07:42:35;12.75;;;5.82;;
15629;SDS011;7914;50.842;0.166;2023-05-13T07:45:01;12.75;;;6.45;;
15629;SDS011;7914;50.842;0.166;2023-05-13T07:47:27;11.35;;;6.05;;
15629;SDS011;7914;50.842;0.166;2023-05-13T07:49:55;14.18;;;6.47;;
15629;SDS011;7914;50.842;0.166;2023-05-13T07:52:21;16.50;;;6.13;;
15629;SDS011;7914;50.842;0.166;2023-05-13T07:54:47;15.07;;;6.00;;
15629;SDS011;7914;50.842;0.166;2023-05-13T07:57:13;14.15;;;5.65;;
15629;SDS011;7914;50.842;0.166;2023-05-13T07:59:39;13.23;;;6.35;;
15629;SDS011;7914;50.842;0.166;2023-05-13T08:02:04;15.00;;;6.50;;
15629;SDS011;7914;50.842;0.166;2023-05-13T08:04:31;17.63;;;6.18;;
15629;SDS011;7914;50.842;0.166;2023-05-13T08:06:57;13.02;;;6.22;;
15629;SDS011;7914;50.842;0.166;2023-05-13T08:09:23;12.50;;;5.93;;
15629;SDS011;7914;50.842;0.166;2023-05-13T08:11:48;15.98;;;6.18;;
15629;SDS011;7914;50.842;0.166;2023-05-13T08:14:14;13.43;;;6.07;;
15629;SDS011;7914;50.842;0.166;2023-05-13T08:16:40;15.93;;;6.10;;
15629;SDS011;7914;50.842;0.166;2023-05-13T08:19:05;16.35;;;6.97;;
15629;SDS011;7914;50.842;0.166;2023-05-13T08:21:31;10.75;;;6.22;;
15629;SDS011;7914;50.842;0.166;2023-05-13T08:23:57;11.60;;;5.80;;
15629;SDS011;7914;50.842;0.166;2023-05-13T08:26:22;16.02;;;6.82;;
15629;SDS011;7914;50.842;0.166;2023-05-13T08:28:48;12.95;;;6.78;;
15629;SDS011;7914;50.842;0.166;2023-05-13T08:31:14;13.70;;;6.13;;
15629;SDS011;7914;50.842;0.166;2023-05-13T08:33:40;13.10;;;6.40;;
15629;SDS011;7914;50.842;0.166;2023-05-13T08:36:06;12.23;;;6.60;;
15629;SDS011;7914;50.842;0.166;2023-05-13T08:38:33;14.95;;;6.15;;
15629;SDS011;7914;50.842;0.166;2023-05-13T08:40:59;11.98;;;6.05;;
15629;SDS011;7914;50.842;0.166;2023-05-13T08:43:27;10.85;;;4.75;;
15629;SDS011;7914;50.842;0.166;2023-05-13T08:45:55;12.88;;;5.75;;
15629;SDS011;7914;50.842;0.166;2023-05-13T08:48:22;14.77;;;5.32;;
15629;SDS011;7914;50.842;0.166;2023-05-13T08:50:48;11.10;;;5.18;;
15629;SDS011;7914;50.842;0.166;2023-05-13T08:53:15;12.80;;;5.82;;
15629;SDS011;7914;50.842;0.166;2023-05-13T08:55:42;18.75;;;6.55;;
15629;SDS011;7914;50.842;0.166;2023-05-13T08:58:09;16.88;;;5.60;;
15629;SDS011;7914;50.842;0.166;2023-05-13T09:00:35;11.93;;;5.55;;
15629;SDS011;7914;50.842;0.166;2023-05-13T09:03:01;12.65;;;5.70;;
15629;SDS011;7914;50.842;0.166;2023-05-13T09:05:27;12.60;;;5.68;;
15629;SDS011;7914;50.842;0.166;2023-05-13T09:07:53;11.38;;;5.78;;
15629;SDS011;7914;50.842;0.166;2023-05-13T09:10:19;12.40;;;5.80;;
15629;SDS011;7914;50.842;0.166;2023-05-13T09:15:22;14.13;;;6.13;;
15629;SDS011;7914;50.842;0.166;2023-05-13T09:17:50;15.35;;;6.10;;
15629;SDS011;7914;50.842;0.166;2023-05-13T09:20:18;14.60;;;6.53;;
15629;SDS011;7914;50.842;0.166;2023-05-13T09:22:48;12.63;;;6.03;;
15629;SDS011;7914;50.842;0.166;2023-05-13T09:25:17;11.73;;;5.35;;
15629;SDS011;7914;50.842;0.166;2023-05-13T09:27:48;12.25;;;5.53;;
15629;SDS011;7914;50.842;0.166;2023-05-13T09:30:20;11.70;;;5.43;;
15629;SDS011;7914;50.842;0.166;2023-05-13T09:33:02;11.43;;;5.47;;
15629;SDS011;7914;50.842;0.166;2023-05-13T09:35:32;13.43;;;5.40;;
15629;SDS011;7914;50.842;0.166;2023-05-13T09:37:59;12.02;;;5.45;;
15629;SDS011;7914;50.842;0.166;2023-05-13T09:40:25;11.48;;;5.88;;
15629;SDS011;7914;50.842;0.166;2023-05-13T09:42:55;10.68;;;5.22;;
15629;SDS011;7914;50.842;0.166;2023-05-13T09:45:22;14.25;;;5.25;;
15629;SDS011;7914;50.842;0.166;2023-05-13T09:47:49;10.07;;;5.22;;
15629;SDS011;7914;50.842;0.166;2023-05-13T09:50:18;10.82;;;5.32;;
15629;SDS011;7914;50.842;0.166;2023-05-13T09:52:44;12.02;;;5.50;;
15629;SDS011;7914;50.842;0.166;2023-05-13T09:55:10;11.10;;;5.45;;
15629;SDS011;7914;50.842;0.166;2023-05-13T09:57:37;12.45;;;5.75;;
15629;SDS011;7914;50.842;0.166;2023-05-13T10:00:04;10.27;;;5.50;;
15629;SDS011;7914;50.842;0.166;2023-05-13T10:02:31;12.75;;;5.57;;
15629;SDS011;7914;50.842;0.166;2023-05-13T10:04:56;13.25;;;6.22;;
15629;SDS011;7914;50.842;0.166;2023-05-13T10:07:23;12.52;;;5.22;;
15629;SDS011;7914;50.842;0.166;2023-05-13T10:09:52;11.80;;;5.68;;
15629;SDS011;7914;50.842;0.166;2023-05-13T10:12:26;12.23;;;5.45;;
15629;SDS011;7914;50.842;0.166;2023-05-13T10:14:54;10.48;;;5.07;;
15629;SDS011;7914;50.842;0.166;2023-05-13T10:17:21;10.48;;;5.63;;
15629;SDS011;7914;50.842;0.166;2023-05-13T10:19:49;11.45;;;6.00;;
15629;SDS011;7914;50.842;0.166;2023-05-13T10:22:37;11.05;;;5.90;;
15629;SDS011;7914;50.842;0.166;2023-05-13T10:25:02;11.25;;;5.10;;
15629;SDS011;7914;50.842;0.166;2023-05-13T10:27:30;9.45;;;4.93;;
15629;SDS011;7914;50.842;0.166;2023-05-13T10:29:57;9.68;;;4.90;;
15629;SDS011;7914;50.842;0.166;2023-05-13T10:32:24;10.20;;;5.40;;
15629;SDS011;7914;50.842;0.166;2023-05-13T10:37:53;11.48;;;5.30;;
15629;SDS011;7914;50.842;0.166;2023-05-13T10:43:32;10.05;;;5.70;;
15629;SDS011;7914;50.842;0.166;2023-05-13T10:45:59;10.07;;;5.35;;
15629;SDS011;7914;50.842;0.166;2023-05-13T10:48:36;11.40;;;6.15;;
15629;SDS011;7914;50.842;0.166;2023-05-13T10:51:03;11.98;;;5.50;;
15629;SDS011;7914;50.842;0.166;2023-05-13T10:53:35;10.55;;;5.57;;
15629;SDS011;7914;50.842;0.166;2023-05-13T10:56:08;15.10;;;5.95;;
15629;SDS011;7914;50.842;0.166;2023-05-13T10:58:34;12.48;;;5.30;;
15629;SDS011;7914;50.842;0.166;2023-05-13T11:01:37;10.38;;;5.47;;
15629;SDS011;7914;50.842;0.166;2023-05-13T11:03:59;12.07;;;5.18;;
15629;SDS011;7914;50.842;0.166;2023-05-13T11:06:36;11.65;;;5.45;;
15629;SDS011;7914;50.842;0.166;2023-05-13T11:09:03;10.07;;;5.35;;
15629;SDS011;7914;50.842;0.166;2023-05-13T11:11:31;10.70;;;5.70;;
15629;SDS011;7914;50.842;0.166;2023-05-13T11:16:23;9.45;;;5.20;;
15629;SDS011;7914;50.842;0.166;2023-05-13T11:18:50;13.18;;;5.32;;
15629;SDS011;7914;50.842;0.166;2023-05-13T11:21:17;9.05;;;5.07;;
15629;SDS011;7914;50.842;0.166;2023-05-13T11:24:04;10.93;;;5.20;;
15629;SDS011;7914;50.842;0.166;2023-05-13T11:26:45;12.15;;;5.45;;
15629;SDS011;7914;50.842;0.166;2023-05-13T11:29:13;14.18;;;5.68;;
15629;SDS011;7914;50.842;0.166;2023-05-13T11:34:15;8.40;;;5.07;;
15629;SDS011;7914;50.842;0.166;2023-05-13T11:36:45;9.43;;;5.72;;
15629;SDS011;7914;50.842;0.166;2023-05-13T11:41:43;10.95;;;5.68;;
15629;SDS011;7914;50.842;0.166;2023-05-13T11:44:11;9.85;;;4.90;;
15629;SDS011;7914;50.842;0.166;2023-05-13T11:46:47;12.60;;;5.32;;
15629;SDS011;7914;50.842;0.166;2023-05-13T11:54:32;10.93;;;5.22;;
15629;SDS011;7914;50.842;0.166;2023-05-13T11:57:27;14.75;;;5.75;;
15629;SDS011;7914;50.842;0.166;2023-05-13T12:02:28;12.05;;;5.18;;
15629;SDS011;7914;50.842;0.166;2023-05-13T12:05:01;10.50;;;5.53;;
15629;SDS011;7914;50.842;0.166;2023-05-13T12:07:31;12.55;;;6.22;;
15629;SDS011;7914;50.842;0.166;2023-05-13T12:09:58;13.25;;;5.53;;
15629;SDS011;7914;50.842;0.166;2023-05-13T12:12:26;11.20;;;5.65;;
15629;SDS011;7914;50.842;0.166;2023-05-13T12:14:54;9.77;;;5.40;;
15629;SDS011;7914;50.842;0.166;2023-05-13T12:17:22;12.23;;;5.15;;
15629;SDS011;7914;50.842;0.166;2023-05-13T12:22:35;10.88;;;5.78;;
15629;SDS011;7914;50.842;0.166;2023-05-13T12:30:36;9.95;;;5.72;;
15629;SDS011;7914;50.842;0.166;2023-05-13T12:33:02;12.75;;;6.63;;
15629;SDS011;7914;50.842;0.166;2023-05-13T12:35:32;24.08;;;8.57;;
15629;SDS011;7914;50.842;0.166;2023-05-13T12:38:01;11.07;;;5.63;;
15629;SDS011;7914;50.842;0.166;2023-05-13T12:40:27;11.43;;;5.85;;
15629;SDS011;7914;50.842;0.166;2023-05-13T12:42:56;11.27;;;6.15;;
15629;SDS011;7914;50.842;0.166;2023-05-13T12:45:25;11.95;;;6.22;;
15629;SDS011;7914;50.842;0.166;2023-05-13T12:47:53;11.63;;;5.80;;
15629;SDS011;7914;50.842;0.166;2023-05-13T12:50:19;10.93;;;5.53;;
15629;SDS011;7914;50.842;0.166;2023-05-13T12:52:45;12.93;;;5.53;;
15629;SDS011;7914;50.842;0.166;2023-05-13T12:55:11;12.27;;;6.35;;
15629;SDS011;7914;50.842;0.166;2023-05-13T12:57:38;13.55;;;6.32;;
15629;SDS011;7914;50.842;0.166;2023-05-13T13:00:05;13.82;;;6.25;;
15629;SDS011;7914;50.842;0.166;2023-05-13T13:02:31;11.20;;;5.72;;
15629;SDS011;7914;50.842;0.166;2023-05-13T13:04:57;10.13;;;5.63;;
15629;SDS011;7914;50.842;0.166;2023-05-13T13:07:22;12.45;;;6.30;;
15629;SDS011;7914;50.842;0.166;2023-05-13T13:09:48;10.23;;;5.85;;
15629;SDS011;7914;50.842;0.166;2023-05-13T13:12:20;12.38;;;6.28;;
15629;SDS011;7914;50.842;0.166;2023-05-13T13:14:45;10.27;;;5.50;;
15629;SDS011;7914;50.842;0.166;2023-05-13T13:17:12;10.30;;;5.75;;
15629;SDS011;7914;50.842;0.166;2023-05-13T13:19:37;11.18;;;6.10;;
15629;SDS011;7914;50.842;0.166;2023-05-13T13:22:03;12.35;;;5.53;;
15629;SDS011;7914;50.842;0.166;2023-05-13T13:24:29;10.25;;;6.13;;
15629;SDS011;7914;50.842;0.166;2023-05-13T13:26:55;12.27;;;5.10;;
15629;SDS011;7914;50.842;0.166;2023-05-13T13:29:21;9.90;;;5.75;;
15629;SDS011;7914;50.842;0.166;2023-05-13T13:31:47;11.18;;;6.03;;
15629;SDS011;7914;50.842;0.166;2023-05-13T13:34:12;10.65;;;5.68;;
15629;SDS011;7914;50.842;0.166;2023-05-13T13:36:38;11.50;;;5.45;;
15629;SDS011;7914;50.842;0.166;2023-05-13T13:39:04;10.48;;;5.25;;
15629;SDS011;7914;50.842;0.166;2023-05-13T13:41:30;10.98;;;5.93;;
15629;SDS011;7914;50.842;0.166;2023-05-13T13:43:55;12.05;;;6.45;;
15629;SDS011;7914;50.842;0.166;2023-05-13T13:46:21;9.88;;;5.80;;
15629;SDS011;7914;50.842;0.166;2023-05-13T13:48:47;11.02;;;6.18;;
15629;SDS011;7914;50.842;0.166;2023-05-13T13:51:12;11.73;;;6.18;;
15629;SDS011;7914;50.842;0.166;2023-05-13T13:53:38;11.35;;;5.97;;
15629;SDS011;7914;50.842;0.166;2023-05-13T13:56:05;10.55;;;5.45;;
15629;SDS011;7914;50.842;0.166;2023-05-13T13:58:31;11.50;;;5.75;;
15629;SDS011;7914;50.842;0.166;2023-05-13T14:00:57;10.00;;;5.97;;
15629;SDS011;7914;50.842;0.166;2023-05-13T14:03:22;10.18;;;5.53;;
15629;SDS011;7914;50.842;0.166;2023-05-13T14:05:48;10.00;;;5.72;;
15629;SDS011;7914;50.842;0.166;2023-05-13T14:08:14;11.32;;;5.50;;
15629;SDS011;7914;50.842;0.166;2023-05-13T14:10:39;17.92;;;6.95;;
15629;SDS011;7914;50.842;0.166;2023-05-13T14:13:05;12.00;;;6.28;;
15629;SDS011;7914;50.842;0.166;2023-05-13T14:15:31;11.00;;;5.50;;
15629;SDS011;7914;50.842;0.166;2023-05-13T14:17:56;9.55;;;5.45;;
15629;SDS011;7914;50.842;0.166;2023-05-13T14:20:22;10.20;;;6.03;;
15629;SDS011;7914;50.842;0.166;2023-05-13T14:22:52;13.52;;;5.65;;
15629;SDS011;7914;50.842;0.166;2023-05-13T14:25:18;11.18;;;5.55;;
15629;SDS011;7914;50.842;0.166;2023-05-13T14:27:44;14.43;;;5.55;;
15629;SDS011;7914;50.842;0.166;2023-05-13T14:30:09;11.20;;;5.35;;
15629;SDS011;7914;50.842;0.166;2023-05-13T14:32:35;9.40;;;5.53;;
15629;SDS011;7914;50.842;0.166;2023-05-13T14:35:01;12.55;;;6.53;;
15629;SDS011;7914;50.842;0.166;2023-05-13T14:37:27;10.57;;;5.28;;
15629;SDS011;7914;50.842;0.166;2023-05-13T14:39:52;12.43;;;5.80;;
15629;SDS011;7914;50.842;0.166;2023-05-13T14:42:18;11.80;;;5.85;;
15629;SDS011;7914;50.842;0.166;2023-05-13T14:44:45;13.18;;;5.97;;
15629;SDS011;7914;50.842;0.166;2023-05-13T14:47:10;10.35;;;5.85;;
15629;SDS011;7914;50.842;0.166;2023-05-13T14:49:36;10.25;;;5.55;;
15629;SDS011;7914;50.842;0.166;2023-05-13T14:52:02;11.07;;;6.15;;
15629;SDS011;7914;50.842;0.166;2023-05-13T14:54:27;11.00;;;5.88;;
15629;SDS011;7914;50.842;0.166;2023-05-13T14:56:59;11.13;;;6.47;;
15629;SDS011;7914;50.842;0.166;2023-05-13T14:59:26;12.50;;;5.90;;
15629;SDS011;7914;50.842;0.166;2023-05-13T15:01:53;10.07;;;5.22;;
15629;SDS011;7914;50.842;0.166;2023-05-13T15:04:19;10.43;;;5.60;;
15629;SDS011;7914;50.842;0.166;2023-05-13T15:06:45;12.68;;;6.38;;
15629;SDS011;7914;50.842;0.166;2023-05-13T15:09:11;10.13;;;5.90;;
15629;SDS011;7914;50.842;0.166;2023-05-13T15:11:36;10.75;;;6.60;;
15629;SDS011;7914;50.842;0.166;2023-05-13T15:14:03;12.77;;;6.65;;
15629;SDS011;7914;50.842;0.166;2023-05-13T15:16:29;11.32;;;6.07;;
15629;SDS011;7914;50.842;0.166;2023-05-13T15:18:55;13.45;;;6.90;;
15629;SDS011;7914;50.842;0.166;2023-05-13T15:21:21;15.73;;;6.18;;
15629;SDS011;7914;50.842;0.166;2023-05-13T15:23:47;16.05;;;6.85;;
15629;SDS011;7914;50.842;0.166;2023-05-13T15:26:13;12.73;;;7.15;;